Time;durP1;ratioP1;P1;durP2;ratioP2;P2;SDS_P1;SDS_P2;PMS_P1;PMS_P2;Temp;Humidity;BMP_temperature;BMP_pressure;BME280_temperature;BME280_humidity;BME280_pressure;Samples;Min_cycle;Max_cycle;Signal;HPM_P1;HPM_P2
2023/05/31 00:05:03;;;;;;;12.30;4.80;;;;;;;9.51;78.75;99645.44;274008;1266;23115;-83
2023/05/31 00:11:06;;;;;;;9.90;4.70;;;;;;;9.39;78.78;99647.22;274131;1266;22414;-86
2023/05/31 00:17:07;;;;;;;9.90;4.80;;;;;;;9.25;78.89;99649.43;274245;1265;22374;-85
2023/05/31 00:23:08;;;;;;;12.10;5.00;;;;;;;9.15;79.39;99642.29;274198;1256;22178;-84
2023/05/31 00:29:09;;;;;;;11.10;4.40;;;;;;;9.12;80.01;99641.21;271621;1265;22533;-86
2023/05/31 00:35:10;;;;;;;8.30;4.20;;;;;;;9.09;80.49;99638.23;270127;1266;22998;-84
2023/05/31 00:41:12;;;;;;;10.60;4.20;;;;;;;9.00;80.88;99633.84;272307;1264;22318;-85
2023/05/31 00:47:13;;;;;;;8.20;4.40;;;;;;;8.86;81.20;99632.98;274234;1265;22346;-83
2023/05/31 00:53:18;;;;;;;6.30;4.20;;;;;;;8.78;81.73;99638.55;274145;1256;22227;-83
2023/05/31 00:59:19;;;;;;;6.70;4.30;;;;;;;8.70;82.36;99640.72;271588;1257;22532;-83
2023/05/31 01:05:20;;;;;;;9.60;5.30;;;;;;;8.62;82.75;99648.58;270707;1256;24202;-84
2023/05/31 01:11:37;;;;;;;8.90;4.90;;;;;;;8.54;82.81;99651.70;270578;1266;22545;-84
2023/05/31 01:18:09;;;;;;;12.30;4.90;;;;;;;8.42;83.27;99657.06;270547;1266;23756;-84
2023/05/31 01:24:29;;;;;;;7.50;4.50;;;;;;;8.31;83.60;99658.04;270332;1253;24221;-84
2023/05/31 01:30:39;;;;;;;9.20;5.00;;;;;;;8.23;84.08;99658.62;270823;1256;22334;-85
2023/05/31 01:36:43;;;;;;;9.10;4.90;;;;;;;8.12;84.18;99658.04;274168;1266;22207;-84
2023/05/31 01:42:52;;;;;;;9.10;4.70;;;;;;;7.98;84.27;99664.08;273087;1269;22549;-85
2023/05/31 01:48:53;;;;;;;11.30;4.40;;;;;;;7.80;84.08;99672.45;270325;1266;22688;-83
2023/05/31 01:55:14;;;;;;;8.60;4.50;;;;;;;7.66;83.87;99674.09;271194;1266;24231;-84
2023/05/31 02:01:18;;;;;;;8.20;4.10;;;;;;;7.63;85.10;99670.23;270571;1266;24254;-84
2023/05/31 02:07:21;;;;;;;10.30;4.30;;;;;;;7.70;86.19;99668.94;271109;1256;22609;-84
2023/05/31 02:13:27;;;;;;;7.90;4.00;;;;;;;7.70;85.86;99669.01;271262;1269;23120;-84
2023/05/31 02:19:28;;;;;;;11.30;5.00;;;;;;;7.57;85.77;99673.71;273736;1253;22428;-84
2023/05/31 02:25:31;;;;;;;9.80;4.00;;;;;;;7.51;86.27;99672.95;274054;1269;22424;-84
2023/05/31 02:31:32;;;;;;;10.10;4.90;;;;;;;7.47;86.56;99669.70;274149;1266;23210;-83
2023/05/31 02:37:35;;;;;;;7.10;4.00;;;;;;;7.44;86.80;99666.93;274053;1266;22309;-84
2023/05/31 02:43:36;;;;;;;7.90;4.60;;;;;;;7.41;87.09;99667.01;274018;1266;22822;-85
2023/05/31 02:49:37;;;;;;;7.90;4.20;;;;;;;7.37;87.17;99667.95;272896;1262;22551;-83
2023/05/31 02:55:46;;;;;;;6.50;4.00;;;;;;;7.30;87.49;99672.31;270206;1266;22554;-85
2023/05/31 03:01:53;;;;;;;12.30;4.70;;;;;;;7.22;87.52;99673.98;271237;1266;22410;-82
2023/05/31 03:08:20;;;;;;;10.50;5.10;;;;;;;7.19;88.19;99678.06;270732;1266;23130;-84
2023/05/31 03:14:23;;;;;;;11.90;4.60;;;;;;;7.19;88.66;99681.56;271396;1267;22261;-84
2023/05/31 03:20:29;;;;;;;12.60;5.40;;;;;;;7.19;88.93;99684.61;271858;1262;22565;-84
2023/05/31 03:26:31;;;;;;;9.00;4.00;;;;;;;7.21;89.26;99691.89;271756;1266;25306;-84
2023/05/31 03:33:02;;;;;;;8.00;4.70;;;;;;;7.23;89.89;99698.54;271557;1266;22283;-85
2023/05/31 03:39:43;;;;;;;;;;;;;;;7.26;90.21;99705.02;274096;1269;22408;-85
2023/05/31 03:53:56;;;;;;;20.40;5.90;;;;;;;7.41;91.38;99720.16;273395;1266;23702;-85
2023/05/31 04:08:01;;;;;;;13.70;6.70;;;;;;;7.77;92.08;99723.19;270835;1269;22559;-86
2023/05/31 04:21:53;;;;;;;14.30;6.90;;;;;;;8.22;91.91;99714.55;272650;1266;22424;-87
2023/05/31 04:36:24;;;;;;;12.00;6.60;;;;;;;8.74;92.55;99710.94;273995;1269;22195;-86
2023/05/31 05:12:54;;;;;;;12.60;5.70;;;;;;;10.44;92.61;99717.42;273551;1266;22353;-85
2023/05/31 05:19:22;;;;;;;14.10;5.80;;;;;;;10.77;92.50;99722.86;274161;1272;23438;-86
2023/05/31 05:40:38;;;;;;;11.40;5.90;;;;;;;12.18;88.99;99722.61;273956;1272;22217;-85
2023/05/31 05:54:37;;;;;;;9.50;5.10;;;;;;;12.72;86.97;99720.60;274232;1254;22338;-85
2023/05/31 06:08:40;;;;;;;10.50;4.50;;;;;;;13.21;84.88;99716.10;274149;1269;22965;-86
2023/05/31 07:10:45;;;;;;;7.20;4.30;;;;;;;17.65;75.44;99716.37;273456;1269;22614;-87
2023/05/31 07:33:15;;;;;;;6.50;3.40;;;;;;;19.19;70.29;99708.60;272337;1272;22575;-86
2023/05/31 07:40:17;;;;;;;8.10;2.90;;;;;;;19.41;67.93;99697.78;271054;1269;22554;-86
2023/05/31 09:07:26;;;;;;;8.60;2.30;;;;;;;20.56;47.82;99678.19;273938;1269;22328;-86
2023/05/31 09:14:15;;;;;;;4.50;1.30;;;;;;;20.57;47.96;99676.98;274033;1272;22271;-87
2023/05/31 09:28:53;;;;;;;3.50;1.60;;;;;;;21.20;46.86;99671.56;271438;1280;22296;-87
2023/05/31 09:58:09;;;;;;;7.00;2.30;;;;;;;23.37;44.90;99663.18;266460;1267;10138100;-86
2023/05/31 10:04:36;;;;;;;8.60;2.80;;;;;;;23.91;44.31;99656.06;273267;1267;22556;-86
2023/05/31 10:11:03;;;;;;;;;;;;;;;24.21;43.44;99649.26;270458;1266;22552;-85
2023/05/31 10:17:11;;;;;;;6.90;2.20;;;;;;;24.21;43.76;99640.37;270446;1267;22645;-87
2023/05/31 10:38:39;;;;;;;5.50;2.10;;;;;;;24.41;40.98;99614.27;271100;1266;22625;-87
2023/05/31 10:45:30;;;;;;;5.20;2.20;;;;;;;24.75;41.16;99608.33;271117;1266;22522;-86
2023/05/31 11:07:34;;;;;;;5.10;1.80;;;;;;;24.56;38.64;99599.75;274340;1266;22678;-88
2023/05/31 11:13:59;;;;;;;6.20;2.20;;;;;;;24.68;37.37;99596.19;273707;1269;22378;-86
2023/05/31 11:20:26;;;;;;;4.30;2.20;;;;;;;24.56;36.94;99585.03;270785;1261;22204;-86
2023/05/31 11:34:17;;;;;;;5.00;2.20;;;;;;;25.44;37.27;99568.41;271348;1267;22996;-87
2023/05/31 11:48:06;;;;;;;4.70;2.10;;;;;;;25.62;36.96;99556.94;274134;1265;22440;-86
2023/05/31 12:02:03;;;;;;;4.00;2.00;;;;;;;25.91;36.29;99548.25;273926;1269;22103;-86
2023/05/31 12:08:54;;;;;;;5.90;2.20;;;;;;;25.82;36.44;99546.95;272326;1267;22267;-85
2023/05/31 12:23:39;;;;;;;7.20;2.10;;;;;;;24.93;36.52;99536.27;274387;1269;23192;-86
2023/05/31 12:38:22;;;;;;;3.80;1.80;;;;;;;24.30;36.40;99522.80;274230;1272;22359;-86
2023/05/31 12:45:13;;;;;;;6.60;2.40;;;;;;;24.13;36.63;99518.44;274221;1269;22215;-86
2023/05/31 12:52:11;;;;;;;5.60;2.00;;;;;;;23.88;36.90;99510.20;274123;1269;22214;-86
2023/05/31 12:59:05;;;;;;;4.50;2.20;;;;;;;23.92;37.14;99507.68;274320;1272;22627;-88
2023/05/31 13:06:01;;;;;;;5.40;1.90;;;;;;;23.68;36.69;99503.33;274310;1266;22313;-86
2023/05/31 13:12:03;;;;;;;4.80;2.10;;;;;;;23.56;36.68;99505.65;274235;1269;22459;-87
2023/05/31 13:18:04;;;;;;;8.20;2.40;;;;;;;23.43;36.51;99496.71;272835;1267;22735;-85
2023/05/31 13:24:31;;;;;;;7.70;1.90;;;;;;;23.32;36.92;99488.23;270735;1267;22647;-88
2023/05/31 13:30:33;;;;;;;7.30;2.20;;;;;;;23.34;37.01;99481.84;272973;1266;23152;-87
2023/05/31 13:37:20;;;;;;;7.10;1.80;;;;;;;23.27;36.61;99475.05;271366;1267;22513;-86
2023/05/31 13:43:25;;;;;;;4.70;1.90;;;;;;;23.28;37.27;99476.13;271936;1266;22537;-86
2023/05/31 13:50:15;;;;;;;6.10;1.80;;;;;;;23.33;37.39;99474.31;272471;1266;23552;-87
2023/05/31 13:56:43;;;;;;;;;;;;;;;23.26;37.45;99473.18;274039;1266;22481;-87
2023/05/31 14:35:45;;;;;;;5.00;2.10;;;;;;;23.41;37.10;99444.58;264081;1302;546119;-84
2023/05/31 14:50:08;;;;;;;5.40;2.00;;;;;;;22.87;37.22;99433.06;264654;1279;10145176;-86
2023/05/31 14:56:52;;;;;;;3.40;2.00;;;;;;;22.92;37.70;99436.98;272310;1280;22273;-86
2023/05/31 15:03:36;;;;;;;7.40;2.10;;;;;;;23.06;38.21;99425.38;272233;1285;22427;-85
2023/05/31 15:10:29;;;;;;;3.20;1.70;;;;;;;22.97;38.13;99423.52;271661;1282;23411;-87
2023/05/31 15:16:40;;;;;;;5.10;1.70;;;;;;;22.89;38.73;99420.64;272275;1279;22389;-87
2023/05/31 15:31:21;;;;;;;3.70;1.90;;;;;;;22.67;39.84;99412.02;272023;1279;22891;-87
2023/05/31 15:37:44;;;;;;;6.00;2.00;;;;;;;22.55;39.75;99402.20;272266;1279;23084;-87
2023/05/31 15:43:46;;;;;;;5.50;1.80;;;;;;;22.46;39.89;99398.54;272025;1282;22312;-86
2023/05/31 15:50:13;;;;;;;3.50;1.80;;;;;;;22.44;40.39;99396.44;271091;1282;23692;-86
2023/05/31 16:04:42;;;;;;;5.20;1.90;;;;;;;22.18;41.04;99383.15;268997;1287;22539;-86
2023/05/31 16:11:11;;;;;;;4.30;1.40;;;;;;;22.07;40.62;99378.61;268040;1284;22644;-86
2023/05/31 16:17:13;;;;;;;5.20;1.80;;;;;;;22.00;41.01;99375.95;270526;1279;22369;-87
2023/05/31 16:39:24;;;;;;;3.30;1.50;;;;;;;21.69;40.59;99366.92;272348;1282;22283;-86
2023/05/31 16:47:00;;;;;;;2.70;1.50;;;;;;;21.60;40.54;99359.95;270240;1278;25323;-85
2023/05/31 16:53:05;;;;;;;4.60;1.80;;;;;;;21.50;40.92;99357.02;269832;1283;22943;-86
2023/05/31 16:59:23;;;;;;;5.10;1.80;;;;;;;21.39;41.29;99353.41;271243;1279;22837;-86
2023/05/31 17:06:15;;;;;;;4.00;1.70;;;;;;;21.28;41.11;99351.98;272586;1275;22441;-86
2023/05/31 17:12:24;;;;;;;6.30;1.90;;;;;;;21.18;41.50;99344.91;272723;1277;22961;-86
2023/05/31 17:18:44;;;;;;;3.90;1.90;;;;;;;21.06;41.79;99345.38;271015;1261;22591;-85
2023/05/31 17:25:13;;;;;;;3.00;1.60;;;;;;;20.92;41.67;99343.01;271605;1279;22306;-86
2023/05/31 17:39:00;;;;;;;7.20;1.70;;;;;;;20.58;42.30;99328.41;272736;1276;22448;-87
2023/05/31 17:45:32;;;;;;;4.80;1.80;;;;;;;20.39;42.93;99327.52;272577;1276;22895;-87
2023/05/31 17:59:59;;;;;;;13.90;2.70;;;;;;;19.90;43.69;99325.24;270343;1280;22520;-87
2023/05/31 18:07:22;;;;;;;9.40;2.10;;;;;;;19.68;44.42;99324.99;268040;1282;22570;-87
2023/05/31 18:14:16;;;;;;;6.40;2.20;;;;;;;19.39;45.25;99317.95;268858;1285;22564;-86
2023/05/31 18:20:55;;;;;;;9.00;2.00;;;;;;;18.97;45.85;99317.11;271849;1283;25316;-86
2023/05/31 18:27:13;;;;;;;7.30;2.60;;;;;;;18.67;47.34;99319.45;271303;1267;22274;-86
2023/05/31 18:49:12;;;;;;;7.20;3.10;;;;;;;17.67;50.80;99324.50;272741;1277;23322;-86
2023/05/31 18:55:14;;;;;;;17.50;4.70;;;;;;;17.39;51.61;99325.13;272717;1276;23145;-85
2023/05/31 19:24:10;;;;;;;8.50;3.00;;;;;;;15.96;56.99;99341.31;272589;1273;22529;-86
2023/05/31 19:30:13;;;;;;;10.20;3.60;;;;;;;15.73;57.15;99342.76;270090;1273;23668;-89
2023/05/31 19:44:38;;;;;;;6.30;3.30;;;;;;;15.26;58.76;99334.46;269555;1273;23361;-85
2023/05/31 19:51:08;;;;;;;13.20;4.70;;;;;;;15.09;59.49;99332.59;269302;1273;22577;-86
2023/05/31 19:57:31;;;;;;;9.50;4.00;;;;;;;14.87;61.70;99329.00;269702;1273;22513;-86
2023/05/31 20:11:29;;;;;;;8.90;3.90;;;;;;;14.27;63.50;99325.10;269674;1273;22566;-86
2023/05/31 20:17:43;;;;;;;7.40;3.80;;;;;;;14.03;64.66;99327.55;269898;1273;22526;-86
2023/05/31 20:24:10;;;;;;;8.70;4.70;;;;;;;13.80;65.51;99327.17;269174;1273;24473;-86
2023/05/31 20:38:06;;;;;;;11.50;4.50;;;;;;;13.43;66.49;99326.00;273432;1272;23008;-86
2023/05/31 20:52:04;;;;;;;12.60;6.50;;;;;;;13.03;68.94;99328.48;270168;1272;23548;-86
2023/05/31 20:59:56;;;;;;;21.40;10.60;;;;;;;12.74;69.94;99327.10;269821;1260;26363;-86
2023/05/31 21:05:58;;;;;;;25.70;12.70;;;;;;;12.56;70.29;99332.38;272514;1275;22839;-85
2023/05/31 21:12:03;;;;;;;15.20;9.90;;;;;;;12.39;71.14;99333.55;272506;1275;22289;-85
2023/05/31 21:18:33;;;;;;;17.60;10.60;;;;;;;12.24;72.32;99336.55;271813;1275;24226;-86
2023/05/31 21:25:02;;;;;;;24.80;12.50;;;;;;;12.06;73.05;99334.64;269704;1275;22610;-85
2023/05/31 21:31:41;;;;;;;18.70;10.30;;;;;;;11.94;73.52;99333.95;270341;1270;22236;-86
2023/05/31 21:38:09;;;;;;;15.20;8.70;;;;;;;11.80;74.20;99335.68;269880;1270;25391;-85
2023/05/31 21:44:40;;;;;;;17.10;8.60;;;;;;;11.70;74.50;99328.59;273098;1275;23407;-86
2023/05/31 22:13:45;;;;;;;15.20;6.80;;;;;;;11.18;77.00;99335.08;273606;1272;22171;-86
2023/05/31 22:27:40;;;;;;;17.40;7.20;;;;;;;10.85;78.42;99339.77;273617;1272;22365;-86
2023/05/31 22:34:08;;;;;;;12.50;7.00;;;;;;;10.78;78.71;99337.86;273327;1272;22302;-85
2023/05/31 22:40:46;;;;;;;13.70;6.80;;;;;;;10.71;78.95;99336.48;273485;1270;23303;-85
2023/05/31 22:46:47;;;;;;;15.30;7.10;;;;;;;10.57;79.38;99336.81;273423;1272;22297;-85
2023/05/31 23:01:38;;;;;;;17.70;7.80;;;;;;;10.28;80.17;99335.85;273622;1271;22908;-85
2023/05/31 23:24:58;;;;;;;19.20;8.90;;;;;;;9.94;82.43;99323.23;273622;1270;22408;-86
2023/05/31 23:38:59;;;;;;;12.90;7.10;;;;;;;9.83;83.47;99312.57;273395;1269;22299;-86
